• Join FlightAware (Why Join?)
  • Login
  • US Flag GB Flag 
08:19 EDT


 

Airport Tracker/Info


-or-


 

Live Flight TrackerFlight Track Log ✈ SWA2326 ✈ 27-Apr-2013 ✈ KSJC - KSNA

Flight Track Log - Related Links

Times and Time Zones

All times are in EDT time to prevent confusion due to time zone crossing. See the SWA2326 flight status page for this flight to view local times or setup timezone preferences in your user account.

Time Position Orientation Groundspeed Altitude Reporting Facility
EDT Latitude Longitude Course Direction KTS MPH feet Rate Location/Type
16:32 37.4000 -121.9667 141° Southeast 179 206 2,700  Level Northern Cal TRACON
16:33 37.4500 -121.9667 360° North 231 266 5,100 1,080 Climbing Northern Cal TRACON
16:34 37.4167 -121.9000 122° Southeast 222 255 5,000 1,020 Descending Northern Cal TRACON
16:35 37.3667 -121.8333 133° Southeast 225 259 7,200 2,700 Climbing Northern Cal TRACON
16:36 37.3167 -121.7833 141° Southeast 272 313 10,200 3,360 Climbing Northern Cal TRACON
16:37 36.9243 -121.4177 141° Southeast  Level Estimated
16:37 37.2414 -121.6892 135° Southeast 324 373 14,600  Level Oakland Center
16:38 37.1669 -121.6044 138° Southeast 352 405 18,100 3,240 Climbing Oakland Center
16:39 37.0842 -121.5128 139° Southeast 385 443 21,200 3,120 Climbing Oakland Center
16:40 36.9992 -121.4172 138° Southeast 407 468 24,600 3,120 Climbing Oakland Center
16:41 36.9125 -121.3200 138° Southeast 417 480 27,700 2,880 Climbing Oakland Center
16:42 36.8133 -121.2144 140° Southeast 430 495 30,500 2,520 Climbing Oakland Center
16:43 36.7206 -121.1144 139° Southeast 440 506 32,900 2,220 Climbing Oakland Center
16:44 36.6278 -121.0167 140° Southeast 439 505 35,100 1,800 Climbing Oakland Center
16:45 36.5336 -120.9139 139° Southeast 446 513 36,700 1,680 Climbing Oakland Center
16:46 36.4369 -120.8111 139° Southeast 457 526 38,600 1,860 Climbing Oakland Center
16:47 36.3456 -120.7103 138° Southeast 445 512 40,600 1,140 Climbing Oakland Center
16:48 36.2506 -120.6131 140° Southeast 441 507 41,000 180 Climbing Oakland Center
16:49 36.1378 -120.4914 139° Southeast 446 513 41,000  Level Oakland Center
16:50 36.0408 -120.3883 139° Southeast 457 526 41,000  Level Oakland Center
16:51 35.9478 -120.2917 140° Southeast 434 499 41,000  Level Oakland Center
16:52 35.8517 -120.1908 140° Southeast 449 517 41,000  Level Oakland Center
16:53 35.7564 -120.0903 139° Southeast 447 514 41,000  Level Oakland Center
16:54 35.6592 -119.9906 140° Southeast 449 517 41,000  Level Oakland Center
16:55 35.5567 -119.8978 144° Southeast 452 520 41,000  Level Oakland Center
16:56 35.4519 -119.8092 145° Southeast 453 521 41,000  Level Oakland Center
16:57 35.3489 -119.7211 145° Southeast 453 521 41,000  Level Los Angeles Center
16:58 35.2242 -119.6136 145° Southeast 454 522 41,000  Level Los Angeles Center
16:59 35.1203 -119.5256 145° Southeast 454 522 41,000 -540 Level Los Angeles Center
17:00 35.0169 -119.4372 145° Southeast 452 520 39,900 -1,800 Descending Los Angeles Center
17:01 34.9147 -119.3506 145° Southeast 448 516 37,300 -2,700 Descending Los Angeles Center
17:02 34.8142 -119.2636 145° Southeast 446 513 34,400 -2,460 Descending Los Angeles Center
17:03 34.7125 -119.1778 145° Southeast 446 513 32,300 -2,100 Descending Los Angeles Center
17:05 34.6269 -119.1083 146° Southeast 452 520 30,100 -2,880 Descending Los Angeles Center
17:06 34.4783 -118.9847 146° Southeast 463 533 26,400 -2,160 Descending Los Angeles Center
17:07 34.3786 -118.9019 146° Southeast 443 510 25,700 -900 Descending Los Angeles Center
17:08 34.2756 -118.8547 159° South 404 465 24,600 -840 Descending Los Angeles Center
17:09 34.1686 -118.8142 163° South 403 464 24,000 -1,980 Descending Los Angeles Center
17:10 34.0444 -118.7672 163° South 417 480 20,600 -2,640 Descending Los Angeles Center
17:11 33.9247 -118.7231 163° South 418 481 18,100 -2,340 Descending Los Angeles Center
17:12 33.8011 -118.6783 163° South 390 449 15,300 -2,340 Descending Los Angeles Center
17:13 33.7036 -118.6433 163° South 372 428 13,300 -1,920 Descending Los Angeles Center
17:14 33.6189 -118.6006 157° South 336 387 11,300 -1,740 Descending Los Angeles Center
17:15 33.5447 -118.5169 137° Southeast 310 357 9,800 -1,560 Descending Los Angeles Center
17:16 33.5239 -118.4356 107° East 293 337 8,100 -1,740 Descending Los Angeles Center
17:17 33.5400 -118.3444 78° East 285 328 6,300 -1,500 Descending Los Angeles Center
17:18 33.5536 -118.2542 80° East 283 326 5,100 -660 Descending Los Angeles Center
17:19 33.5681 -118.1658 79° East 278 320 5,000 -60 Descending Los Angeles Center
17:20 33.6164 -118.0939 51° Northeast 243 280 5,000  Level Los Angeles Center
17:21 33.6333 -118.0667 53° Northeast 220 253 5,000  Level Southern California TRACON
17:22 33.6667 -118.0167 51° Northeast 221 254 5,000  Level Southern California TRACON
17:23 33.7167 -117.9500 48° Northeast 222 255 5,000  Level Southern California TRACON
17:24 33.7500 -117.9000 51° Northeast 210 242 5,000 -420 Level Southern California TRACON
17:25 33.7833 -117.8667 40° Northeast 161 185 4,200 -1,200 Descending Southern California TRACON
17:26 33.7500 -117.8333 140° Southeast 138 159 2,700 -1,560 Descending Southern California TRACON
17:27 33.7167 -117.8500 203° Southwest 133 153 1,100 -1,260 Descending Southern California TRACON
17:28 33.6833 -117.8667 203° Southwest 116 133 200 -900 Descending Southern California TRACON